sensor_id;sensor_type;location;lat;lon;timestamp;P1;durP1;ratioP1;P2;durP2;ratioP2
16189;SDS011;41754;51.498;7.540;2023-04-15T00:02:19;10.53;;;9.40;;
16189;SDS011;41754;51.498;7.540;2023-04-15T00:04:47;12.07;;;9.90;;
16189;SDS011;41754;51.498;7.540;2023-04-15T00:07:15;14.77;;;10.27;;
16189;SDS011;41754;51.498;7.540;2023-04-15T00:09:43;16.37;;;10.90;;
16189;SDS011;41754;51.498;7.540;2023-04-15T00:12:11;12.63;;;9.87;;
16189;SDS011;41754;51.498;7.540;2023-04-15T00:14:39;12.40;;;9.70;;
16189;SDS011;41754;51.498;7.540;2023-04-15T00:17:07;11.40;;;10.20;;
16189;SDS011;41754;51.498;7.540;2023-04-15T00:19:36;10.37;;;9.37;;
16189;SDS011;41754;51.498;7.540;2023-04-15T00:22:04;11.10;;;9.93;;
16189;SDS011;41754;51.498;7.540;2023-04-15T00:24:33;11.27;;;10.07;;
16189;SDS011;41754;51.498;7.540;2023-04-15T00:27:01;13.10;;;10.30;;
16189;SDS011;41754;51.498;7.540;2023-04-15T00:29:30;13.07;;;9.97;;
16189;SDS011;41754;51.498;7.540;2023-04-15T00:31:58;12.80;;;10.33;;
16189;SDS011;41754;51.498;7.540;2023-04-15T00:34:26;13.23;;;10.67;;
16189;SDS011;41754;51.498;7.540;2023-04-15T00:36:56;11.20;;;10.07;;
16189;SDS011;41754;51.498;7.540;2023-04-15T00:39:25;12.00;;;10.60;;
16189;SDS011;41754;51.498;7.540;2023-04-15T00:41:53;14.70;;;10.80;;
16189;SDS011;41754;51.498;7.540;2023-04-15T00:44:22;12.20;;;10.70;;
16189;SDS011;41754;51.498;7.540;2023-04-15T00:46:51;11.83;;;10.67;;
16189;SDS011;41754;51.498;7.540;2023-04-15T00:49:20;18.40;;;11.50;;
16189;SDS011;41754;51.498;7.540;2023-04-15T00:51:49;12.93;;;11.53;;
16189;SDS011;41754;51.498;7.540;2023-04-15T00:54:19;12.80;;;11.00;;
16189;SDS011;41754;51.498;7.540;2023-04-15T00:56:46;13.30;;;11.90;;
16189;SDS011;41754;51.498;7.540;2023-04-15T00:59:14;12.70;;;11.40;;
16189;SDS011;41754;51.498;7.540;2023-04-15T01:01:45;13.00;;;11.67;;
16189;SDS011;41754;51.498;7.540;2023-04-15T01:04:14;15.73;;;12.33;;
16189;SDS011;41754;51.498;7.540;2023-04-15T01:06:42;15.27;;;11.83;;
16189;SDS011;41754;51.498;7.540;2023-04-15T01:09:10;15.37;;;12.70;;
16189;SDS011;41754;51.498;7.540;2023-04-15T01:11:40;15.77;;;12.70;;
16189;SDS011;41754;51.498;7.540;2023-04-15T01:14:07;13.70;;;11.43;;
16189;SDS011;41754;51.498;7.540;2023-04-15T01:16:36;14.27;;;12.73;;
16189;SDS011;41754;51.498;7.540;2023-04-15T01:19:05;14.70;;;12.60;;
16189;SDS011;41754;51.498;7.540;2023-04-15T01:21:35;15.83;;;12.53;;
16189;SDS011;41754;51.498;7.540;2023-04-15T01:24:04;14.07;;;12.13;;
16189;SDS011;41754;51.498;7.540;2023-04-15T01:26:38;14.43;;;12.37;;
16189;SDS011;41754;51.498;7.540;2023-04-15T01:29:08;16.57;;;13.03;;
16189;SDS011;41754;51.498;7.540;2023-04-15T01:31:36;14.67;;;12.23;;
16189;SDS011;41754;51.498;7.540;2023-04-15T01:34:04;13.50;;;12.10;;
16189;SDS011;41754;51.498;7.540;2023-04-15T01:36:32;16.30;;;14.60;;
16189;SDS011;41754;51.498;7.540;2023-04-15T01:39:00;15.47;;;13.87;;
16189;SDS011;41754;51.498;7.540;2023-04-15T01:41:29;18.97;;;14.63;;
16189;SDS011;41754;51.498;7.540;2023-04-15T01:43:58;16.73;;;14.47;;
16189;SDS011;41754;51.498;7.540;2023-04-15T01:46:27;18.83;;;14.87;;
16189;SDS011;41754;51.498;7.540;2023-04-15T01:48:54;16.67;;;14.73;;
16189;SDS011;41754;51.498;7.540;2023-04-15T01:51:23;19.07;;;14.70;;
16189;SDS011;41754;51.498;7.540;2023-04-15T01:53:52;16.50;;;14.47;;
16189;SDS011;41754;51.498;7.540;2023-04-15T01:56:22;17.40;;;14.80;;
16189;SDS011;41754;51.498;7.540;2023-04-15T01:58:51;17.27;;;15.20;;
16189;SDS011;41754;51.498;7.540;2023-04-15T02:01:20;15.53;;;13.73;;
16189;SDS011;41754;51.498;7.540;2023-04-15T02:03:48;15.70;;;13.90;;
16189;SDS011;41754;51.498;7.540;2023-04-15T02:06:16;16.67;;;14.23;;
16189;SDS011;41754;51.498;7.540;2023-04-15T02:08:44;15.63;;;13.90;;
16189;SDS011;41754;51.498;7.540;2023-04-15T02:11:12;16.77;;;13.83;;
16189;SDS011;41754;51.498;7.540;2023-04-15T02:13:40;15.83;;;14.13;;
16189;SDS011;41754;51.498;7.540;2023-04-15T02:16:14;15.87;;;14.27;;
16189;SDS011;41754;51.498;7.540;2023-04-15T02:18:44;15.93;;;13.13;;
16189;SDS011;41754;51.498;7.540;2023-04-15T02:21:13;16.43;;;13.50;;
16189;SDS011;41754;51.498;7.540;2023-04-15T02:23:41;17.20;;;13.63;;
16189;SDS011;41754;51.498;7.540;2023-04-15T02:26:11;16.07;;;14.20;;
16189;SDS011;41754;51.498;7.540;2023-04-15T02:28:39;15.07;;;13.50;;
16189;SDS011;41754;51.498;7.540;2023-04-15T02:31:07;17.17;;;13.00;;
16189;SDS011;41754;51.498;7.540;2023-04-15T02:33:35;14.83;;;13.43;;
16189;SDS011;41754;51.498;7.540;2023-04-15T02:36:05;15.70;;;12.97;;
16189;SDS011;41754;51.498;7.540;2023-04-15T02:38:34;16.53;;;13.60;;
16189;SDS011;41754;51.498;7.540;2023-04-15T02:41:03;15.60;;;13.23;;
16189;SDS011;41754;51.498;7.540;2023-04-15T02:43:33;16.03;;;13.33;;
16189;SDS011;41754;51.498;7.540;2023-04-15T02:46:01;17.23;;;13.40;;
16189;SDS011;41754;51.498;7.540;2023-04-15T02:48:29;15.43;;;12.50;;
16189;SDS011;41754;51.498;7.540;2023-04-15T02:51:11;16.73;;;12.77;;
16189;SDS011;41754;51.498;7.540;2023-04-15T02:53:40;15.90;;;13.87;;
16189;SDS011;41754;51.498;7.540;2023-04-15T02:56:08;16.90;;;13.80;;
16189;SDS011;41754;51.498;7.540;2023-04-15T02:58:37;16.07;;;14.03;;
16189;SDS011;41754;51.498;7.540;2023-04-15T03:01:06;15.03;;;13.53;;
16189;SDS011;41754;51.498;7.540;2023-04-15T03:03:34;16.57;;;13.63;;
16189;SDS011;41754;51.498;7.540;2023-04-15T03:06:02;14.70;;;13.03;;
16189;SDS011;41754;51.498;7.540;2023-04-15T03:08:32;15.07;;;13.47;;
16189;SDS011;41754;51.498;7.540;2023-04-15T03:11:00;14.97;;;12.93;;
16189;SDS011;41754;51.498;7.540;2023-04-15T03:13:28;17.87;;;13.33;;
16189;SDS011;41754;51.498;7.540;2023-04-15T03:15:57;20.17;;;13.03;;
16189;SDS011;41754;51.498;7.540;2023-04-15T03:18:26;14.60;;;13.10;;
16189;SDS011;41754;51.498;7.540;2023-04-15T03:20:59;14.83;;;13.23;;
16189;SDS011;41754;51.498;7.540;2023-04-15T03:23:29;15.47;;;13.77;;
16189;SDS011;41754;51.498;7.540;2023-04-15T03:26:00;18.23;;;15.07;;
16189;SDS011;41754;51.498;7.540;2023-04-15T03:28:29;16.20;;;14.60;;
16189;SDS011;41754;51.498;7.540;2023-04-15T03:30:58;18.33;;;14.80;;
16189;SDS011;41754;51.498;7.540;2023-04-15T03:33:26;16.83;;;15.10;;
16189;SDS011;41754;51.498;7.540;2023-04-15T03:35:54;19.37;;;15.33;;
16189;SDS011;41754;51.498;7.540;2023-04-15T03:38:22;18.43;;;16.10;;
16189;SDS011;41754;51.498;7.540;2023-04-15T03:40:52;17.90;;;15.73;;
16189;SDS011;41754;51.498;7.540;2023-04-15T03:43:19;20.37;;;17.03;;
16189;SDS011;41754;51.498;7.540;2023-04-15T03:45:47;19.50;;;17.50;;
16189;SDS011;41754;51.498;7.540;2023-04-15T03:48:15;19.53;;;16.57;;
16189;SDS011;41754;51.498;7.540;2023-04-15T03:50:43;18.67;;;16.67;;
16189;SDS011;41754;51.498;7.540;2023-04-15T03:53:12;16.93;;;14.37;;
16189;SDS011;41754;51.498;7.540;2023-04-15T03:55:40;16.20;;;14.00;;
16189;SDS011;41754;51.498;7.540;2023-04-15T03:58:10;17.23;;;14.80;;
16189;SDS011;41754;51.498;7.540;2023-04-15T04:00:38;16.53;;;14.67;;
16189;SDS011;41754;51.498;7.540;2023-04-15T04:03:06;15.87;;;14.23;;
16189;SDS011;41754;51.498;7.540;2023-04-15T04:05:35;17.07;;;14.60;;
16189;SDS011;41754;51.498;7.540;2023-04-15T04:08:04;16.07;;;14.43;;
16189;SDS011;41754;51.498;7.540;2023-04-15T04:10:32;14.53;;;13.03;;
16189;SDS011;41754;51.498;7.540;2023-04-15T04:13:00;16.50;;;13.17;;
16189;SDS011;41754;51.498;7.540;2023-04-15T04:15:29;14.97;;;13.20;;
16189;SDS011;41754;51.498;7.540;2023-04-15T04:17:57;16.57;;;14.87;;
16189;SDS011;41754;51.498;7.540;2023-04-15T04:20:28;17.23;;;15.40;;
16189;SDS011;41754;51.498;7.540;2023-04-15T04:22:57;18.20;;;14.53;;
16189;SDS011;41754;51.498;7.540;2023-04-15T04:25:25;15.87;;;14.00;;
16189;SDS011;41754;51.498;7.540;2023-04-15T04:27:53;15.40;;;13.80;;
16189;SDS011;41754;51.498;7.540;2023-04-15T04:30:21;18.90;;;14.80;;
16189;SDS011;41754;51.498;7.540;2023-04-15T04:32:50;18.23;;;15.47;;
16189;SDS011;41754;51.498;7.540;2023-04-15T04:35:18;16.40;;;14.70;;
16189;SDS011;41754;51.498;7.540;2023-04-15T04:37:47;17.90;;;14.33;;
16189;SDS011;41754;51.498;7.540;2023-04-15T04:40:15;18.70;;;16.17;;
16189;SDS011;41754;51.498;7.540;2023-04-15T04:42:43;19.47;;;15.43;;
16189;SDS011;41754;51.498;7.540;2023-04-15T04:45:11;17.07;;;15.27;;
16189;SDS011;41754;51.498;7.540;2023-04-15T04:47:39;18.57;;;16.63;;
16189;SDS011;41754;51.498;7.540;2023-04-15T04:50:09;18.97;;;16.97;;
16189;SDS011;41754;51.498;7.540;2023-04-15T04:52:37;19.40;;;15.30;;
16189;SDS011;41754;51.498;7.540;2023-04-15T04:55:05;20.03;;;15.20;;
16189;SDS011;41754;51.498;7.540;2023-04-15T04:57:34;16.10;;;14.47;;
16189;SDS011;41754;51.498;7.540;2023-04-15T05:00:03;16.30;;;13.67;;
16189;SDS011;41754;51.498;7.540;2023-04-15T05:02:32;14.07;;;12.53;;
16189;SDS011;41754;51.498;7.540;2023-04-15T05:05:00;13.27;;;11.93;;
16189;SDS011;41754;51.498;7.540;2023-04-15T05:07:29;13.67;;;12.37;;
16189;SDS011;41754;51.498;7.540;2023-04-15T05:09:57;15.13;;;12.63;;
16189;SDS011;41754;51.498;7.540;2023-04-15T05:12:25;16.33;;;13.57;;
16189;SDS011;41754;51.498;7.540;2023-04-15T05:14:53;17.27;;;13.07;;
16189;SDS011;41754;51.498;7.540;2023-04-15T05:17:21;15.47;;;13.87;;
16189;SDS011;41754;51.498;7.540;2023-04-15T05:19:49;15.13;;;12.97;;
16189;SDS011;41754;51.498;7.540;2023-04-15T05:22:19;14.40;;;12.90;;
16189;SDS011;41754;51.498;7.540;2023-04-15T05:24:48;14.67;;;13.00;;
16189;SDS011;41754;51.498;7.540;2023-04-15T05:27:16;14.87;;;13.37;;
16189;SDS011;41754;51.498;7.540;2023-04-15T05:29:44;15.73;;;14.00;;
16189;SDS011;41754;51.498;7.540;2023-04-15T05:32:12;16.10;;;13.97;;
16189;SDS011;41754;51.498;7.540;2023-04-15T05:34:40;16.63;;;13.07;;
16189;SDS011;41754;51.498;7.540;2023-04-15T05:37:08;16.87;;;14.17;;
16189;SDS011;41754;51.498;7.540;2023-04-15T05:39:36;16.90;;;15.10;;
16189;SDS011;41754;51.498;7.540;2023-04-15T05:42:05;16.50;;;14.60;;
16189;SDS011;41754;51.498;7.540;2023-04-15T05:44:33;16.40;;;13.97;;
16189;SDS011;41754;51.498;7.540;2023-04-15T05:47:01;14.40;;;12.83;;
16189;SDS011;41754;51.498;7.540;2023-04-15T05:49:31;17.53;;;13.33;;
16189;SDS011;41754;51.498;7.540;2023-04-15T05:51:59;17.37;;;15.10;;
16189;SDS011;41754;51.498;7.540;2023-04-15T05:54:27;16.53;;;14.40;;
16189;SDS011;41754;51.498;7.540;2023-04-15T05:56:55;16.23;;;14.63;;
16189;SDS011;41754;51.498;7.540;2023-04-15T05:59:25;14.87;;;13.43;;
16189;SDS011;41754;51.498;7.540;2023-04-15T06:01:53;16.27;;;14.57;;
16189;SDS011;41754;51.498;7.540;2023-04-15T06:04:21;16.97;;;14.80;;
16189;SDS011;41754;51.498;7.540;2023-04-15T06:06:49;16.13;;;14.00;;
16189;SDS011;41754;51.498;7.540;2023-04-15T06:09:17;15.13;;;13.53;;
16189;SDS011;41754;51.498;7.540;2023-04-15T06:11:46;15.33;;;13.83;;
16189;SDS011;41754;51.498;7.540;2023-04-15T06:14:13;15.83;;;13.90;;
16189;SDS011;41754;51.498;7.540;2023-04-15T06:16:43;14.33;;;12.57;;
16189;SDS011;41754;51.498;7.540;2023-04-15T06:19:11;14.17;;;12.67;;
16189;SDS011;41754;51.498;7.540;2023-04-15T06:21:39;14.27;;;12.80;;
16189;SDS011;41754;51.498;7.540;2023-04-15T06:24:07;13.53;;;12.23;;
16189;SDS011;41754;51.498;7.540;2023-04-15T06:26:35;15.17;;;13.67;;
16189;SDS011;41754;51.498;7.540;2023-04-15T06:29:03;13.57;;;12.13;;
16189;SDS011;41754;51.498;7.540;2023-04-15T06:31:31;14.17;;;12.67;;
16189;SDS011;41754;51.498;7.540;2023-04-15T06:34:01;14.70;;;13.20;;
16189;SDS011;41754;51.498;7.540;2023-04-15T06:36:28;14.67;;;12.80;;
16189;SDS011;41754;51.498;7.540;2023-04-15T06:38:57;15.40;;;13.17;;
16189;SDS011;41754;51.498;7.540;2023-04-15T06:41:26;14.47;;;12.93;;
16189;SDS011;41754;51.498;7.540;2023-04-15T06:43:54;14.00;;;12.60;;
16189;SDS011;41754;51.498;7.540;2023-04-15T06:46:22;14.93;;;12.50;;
16189;SDS011;41754;51.498;7.540;2023-04-15T06:48:50;14.50;;;13.07;;
16189;SDS011;41754;51.498;7.540;2023-04-15T06:51:19;15.27;;;13.77;;
16189;SDS011;41754;51.498;7.540;2023-04-15T06:53:48;14.13;;;12.73;;
16189;SDS011;41754;51.498;7.540;2023-04-15T06:56:16;13.60;;;12.30;;
16189;SDS011;41754;51.498;7.540;2023-04-15T06:58:44;13.17;;;11.87;;
16189;SDS011;41754;51.498;7.540;2023-04-15T07:01:12;14.93;;;12.87;;
16189;SDS011;41754;51.498;7.540;2023-04-15T07:03:40;14.97;;;13.13;;
16189;SDS011;41754;51.498;7.540;2023-04-15T07:06:08;14.87;;;13.40;;
16189;SDS011;41754;51.498;7.540;2023-04-15T07:08:37;14.70;;;13.20;;
16189;SDS011;41754;51.498;7.540;2023-04-15T07:11:05;15.27;;;13.70;;
16189;SDS011;41754;51.498;7.540;2023-04-15T07:13:34;16.10;;;14.40;;
16189;SDS011;41754;51.498;7.540;2023-04-15T07:16:02;15.40;;;14.00;;
16189;SDS011;41754;51.498;7.540;2023-04-15T07:18:30;15.43;;;13.73;;
16189;SDS011;41754;51.498;7.540;2023-04-15T07:20:58;14.50;;;13.10;;
16189;SDS011;41754;51.498;7.540;2023-04-15T07:23:26;14.20;;;12.73;;
16189;SDS011;41754;51.498;7.540;2023-04-15T07:25:56;16.10;;;13.00;;
16189;SDS011;41754;51.498;7.540;2023-04-15T07:28:23;14.07;;;12.68;;
16189;SDS011;41754;51.498;7.540;2023-04-15T07:30:52;16.55;;;12.75;;
16189;SDS011;41754;51.498;7.540;2023-04-15T07:33:19;14.97;;;12.83;;
16189;SDS011;41754;51.498;7.540;2023-04-15T07:35:47;13.05;;;11.82;;
16189;SDS011;41754;51.498;7.540;2023-04-15T07:38:15;15.57;;;12.43;;
16189;SDS011;41754;51.498;7.540;2023-04-15T07:40:43;13.65;;;12.02;;
16189;SDS011;41754;51.498;7.540;2023-04-15T07:43:14;12.25;;;11.05;;
16189;SDS011;41754;51.498;7.540;2023-04-15T07:45:42;13.45;;;11.35;;
16189;SDS011;41754;51.498;7.540;2023-04-15T07:48:10;12.20;;;11.00;;
16189;SDS011;41754;51.498;7.540;2023-04-15T07:50:38;13.23;;;11.73;;
16189;SDS011;41754;51.498;7.540;2023-04-15T07:53:06;12.60;;;11.30;;
16189;SDS011;41754;51.498;7.540;2023-04-15T07:55:34;12.75;;;11.45;;
16189;SDS011;41754;51.498;7.540;2023-04-15T07:58:02;12.25;;;11.02;;
16189;SDS011;41754;51.498;7.540;2023-04-15T08:00:32;11.45;;;10.20;;
16189;SDS011;41754;51.498;7.540;2023-04-15T08:03:00;11.30;;;10.07;;
16189;SDS011;41754;51.498;7.540;2023-04-15T08:05:28;12.95;;;11.25;;
16189;SDS011;41754;51.498;7.540;2023-04-15T08:07:56;11.25;;;10.15;;
16189;SDS011;41754;51.498;7.540;2023-04-15T08:10:24;10.25;;;9.25;;
16189;SDS011;41754;51.498;7.540;2023-04-15T08:12:53;11.57;;;10.38;;
16189;SDS011;41754;51.498;7.540;2023-04-15T08:15:21;10.52;;;9.52;;
16189;SDS011;41754;51.498;7.540;2023-04-15T08:17:51;9.60;;;8.63;;
16189;SDS011;41754;51.498;7.540;2023-04-15T08:20:19;9.88;;;8.98;;
16189;SDS011;41754;51.498;7.540;2023-04-15T08:22:47;9.88;;;8.88;;
16189;SDS011;41754;51.498;7.540;2023-04-15T08:25:17;10.27;;;9.27;;
16189;SDS011;41754;51.498;7.540;2023-04-15T08:27:45;9.18;;;8.27;;
16189;SDS011;41754;51.498;7.540;2023-04-15T08:30:13;9.38;;;8.40;;
16189;SDS011;41754;51.498;7.540;2023-04-15T08:32:42;9.10;;;8.20;;
16189;SDS011;41754;51.498;7.540;2023-04-15T08:35:14;9.32;;;8.43;;
16189;SDS011;41754;51.498;7.540;2023-04-15T08:37:42;8.48;;;7.68;;
16189;SDS011;41754;51.498;7.540;2023-04-15T08:40:10;9.38;;;8.48;;
16189;SDS011;41754;51.498;7.540;2023-04-15T08:42:40;8.73;;;7.93;;
16189;SDS011;41754;51.498;7.540;2023-04-15T08:45:11;8.05;;;7.25;;
16189;SDS011;41754;51.498;7.540;2023-04-15T08:47:39;10.65;;;8.48;;
16189;SDS011;41754;51.498;7.540;2023-04-15T08:50:09;20.00;;;16.83;;
16189;SDS011;41754;51.498;7.540;2023-04-15T08:52:39;9.43;;;8.43;;
16189;SDS011;41754;51.498;7.540;2023-04-15T08:55:07;8.18;;;7.38;;
16189;SDS011;41754;51.498;7.540;2023-04-15T08:57:37;8.63;;;7.85;;
16189;SDS011;41754;51.498;7.540;2023-04-15T09:00:05;9.00;;;8.10;;
16189;SDS011;41754;51.498;7.540;2023-04-15T09:02:34;8.40;;;7.57;;
16189;SDS011;41754;51.498;7.540;2023-04-15T09:05:03;8.40;;;7.63;;
16189;SDS011;41754;51.498;7.540;2023-04-15T09:07:32;8.93;;;8.02;;
16189;SDS011;41754;51.498;7.540;2023-04-15T09:10:03;8.13;;;7.43;;
16189;SDS011;41754;51.498;7.540;2023-04-15T09:12:33;8.63;;;7.82;;
16189;SDS011;41754;51.498;7.540;2023-04-15T09:15:01;8.13;;;7.43;;
16189;SDS011;41754;51.498;7.540;2023-04-15T09:17:31;7.90;;;7.20;;
16189;SDS011;41754;51.498;7.540;2023-04-15T09:20:07;8.38;;;7.57;;
16189;SDS011;41754;51.498;7.540;2023-04-15T09:22:36;7.60;;;6.90;;
16189;SDS011;41754;51.498;7.540;2023-04-15T09:25:13;8.13;;;7.32;;
16189;SDS011;41754;51.498;7.540;2023-04-15T09:27:53;8.32;;;7.53;;
16189;SDS011;41754;51.498;7.540;2023-04-15T09:30:22;8.38;;;7.57;;
16189;SDS011;41754;51.498;7.540;2023-04-15T09:32:51;8.90;;;8.10;;
16189;SDS011;41754;51.498;7.540;2023-04-15T09:35:20;8.75;;;7.95;;
16189;SDS011;41754;51.498;7.540;2023-04-15T09:37:49;18.83;;;15.63;;
16189;SDS011;41754;51.498;7.540;2023-04-15T09:40:31;8.98;;;8.07;;
16189;SDS011;41754;51.498;7.540;2023-04-15T09:43:00;8.70;;;7.93;;
16189;SDS011;41754;51.498;7.540;2023-04-15T09:45:28;8.25;;;7.45;;
16189;SDS011;41754;51.498;7.540;2023-04-15T09:47:56;9.00;;;8.20;;
16189;SDS011;41754;51.498;7.540;2023-04-15T09:50:26;9.65;;;8.20;;
16189;SDS011;41754;51.498;7.540;2023-04-15T09:52:55;9.05;;;8.25;;
16189;SDS011;41754;51.498;7.540;2023-04-15T09:55:23;9.25;;;8.40;;
16189;SDS011;41754;51.498;7.540;2023-04-15T09:57:53;10.10;;;9.20;;
16189;SDS011;41754;51.498;7.540;2023-04-15T10:00:21;9.32;;;8.40;;
16189;SDS011;41754;51.498;7.540;2023-04-15T10:02:50;9.60;;;8.30;;
16189;SDS011;41754;51.498;7.540;2023-04-15T10:05:18;9.45;;;8.55;;
16189;SDS011;41754;51.498;7.540;2023-04-15T10:07:47;10.25;;;9.25;;
16189;SDS011;41754;51.498;7.540;2023-04-15T10:10:16;9.55;;;8.63;;
16189;SDS011;41754;51.498;7.540;2023-04-15T10:12:44;8.93;;;8.13;;
16189;SDS011;41754;51.498;7.540;2023-04-15T10:15:15;8.15;;;7.35;;
16189;SDS011;41754;51.498;7.540;2023-04-15T10:17:43;7.13;;;6.43;;
16189;SDS011;41754;51.498;7.540;2023-04-15T10:20:14;7.68;;;6.97;;
16189;SDS011;41754;51.498;7.540;2023-04-15T10:22:45;7.80;;;6.25;;
16189;SDS011;41754;51.498;7.540;2023-04-15T10:25:14;9.50;;;8.50;;
16189;SDS011;41754;51.498;7.540;2023-04-15T10:27:42;7.88;;;6.55;;
16189;SDS011;41754;51.498;7.540;2023-04-15T10:30:11;7.88;;;7.03;;
16189;SDS011;41754;51.498;7.540;2023-04-15T10:32:41;9.98;;;9.07;;
16189;SDS011;41754;51.498;7.540;2023-04-15T10:35:09;9.98;;;8.98;;
16189;SDS011;41754;51.498;7.540;2023-04-15T10:37:38;8.50;;;7.70;;
16189;SDS011;41754;51.498;7.540;2023-04-15T10:42:57;11.07;;;9.07;;
16189;SDS011;41754;51.498;7.540;2023-04-15T10:45:26;8.90;;;7.82;;
16189;SDS011;41754;51.498;7.540;2023-04-15T10:47:56;7.85;;;7.13;;
16189;SDS011;41754;51.498;7.540;2023-04-15T10:50:29;8.93;;;8.02;;
16189;SDS011;41754;51.498;7.540;2023-04-15T10:52:58;9.68;;;8.68;;
16189;SDS011;41754;51.498;7.540;2023-04-15T10:55:30;10.23;;;9.32;;
16189;SDS011;41754;51.498;7.540;2023-04-15T10:57:59;9.55;;;8.65;;
16189;SDS011;41754;51.498;7.540;2023-04-15T11:00:29;9.98;;;9.07;;
16189;SDS011;41754;51.498;7.540;2023-04-15T11:03:04;10.55;;;9.48;;
16189;SDS011;41754;51.498;7.540;2023-04-15T11:05:49;9.57;;;8.55;;
16189;SDS011;41754;51.498;7.540;2023-04-15T11:08:18;9.93;;;8.68;;
16189;SDS011;41754;51.498;7.540;2023-04-15T11:10:50;9.73;;;8.77;;
16189;SDS011;41754;51.498;7.540;2023-04-15T11:13:24;9.95;;;8.95;;
16189;SDS011;41754;51.498;7.540;2023-04-15T11:16:00;11.57;;;10.05;;
16189;SDS011;41754;51.498;7.540;2023-04-15T11:18:31;8.55;;;7.75;;
16189;SDS011;41754;51.498;7.540;2023-04-15T11:21:02;8.13;;;7.32;;
16189;SDS011;41754;51.498;7.540;2023-04-15T11:23:36;7.00;;;6.30;;
16189;SDS011;41754;51.498;7.540;2023-04-15T11:26:05;6.82;;;6.18;;
16189;SDS011;41754;51.498;7.540;2023-04-15T11:28:38;7.55;;;6.85;;
16189;SDS011;41754;51.498;7.540;2023-04-15T11:31:08;7.20;;;6.53;;
16189;SDS011;41754;51.498;7.540;2023-04-15T11:33:43;8.13;;;7.32;;
16189;SDS011;41754;51.498;7.540;2023-04-15T11:36:13;8.32;;;7.53;;
16189;SDS011;41754;51.498;7.540;2023-04-15T11:38:41;7.18;;;6.57;;
16189;SDS011;41754;51.498;7.540;2023-04-15T11:41:11;7.32;;;6.68;;
16189;SDS011;41754;51.498;7.540;2023-04-15T11:43:39;8.07;;;7.20;;
16189;SDS011;41754;51.498;7.540;2023-04-15T11:46:07;7.93;;;7.22;;
16189;SDS011;41754;51.498;7.540;2023-04-15T11:48:35;8.15;;;7.32;;
16189;SDS011;41754;51.498;7.540;2023-04-15T11:51:05;8.35;;;7.35;;
16189;SDS011;41754;51.498;7.540;2023-04-15T11:53:37;7.55;;;6.72;;
16189;SDS011;41754;51.498;7.540;2023-04-15T11:56:09;7.78;;;7.07;;
16189;SDS011;41754;51.498;7.540;2023-04-15T11:58:38;8.90;;;8.00;;
16189;SDS011;41754;51.498;7.540;2023-04-15T12:01:07;7.32;;;6.63;;
16189;SDS011;41754;51.498;7.540;2023-04-15T12:03:36;8.13;;;7.25;;
16189;SDS011;41754;51.498;7.540;2023-04-15T12:06:08;8.75;;;7.85;;
16189;SDS011;41754;51.498;7.540;2023-04-15T12:08:52;9.48;;;8.48;;
16189;SDS011;41754;51.498;7.540;2023-04-15T12:11:31;10.82;;;9.70;;
16189;SDS011;41754;51.498;7.540;2023-04-15T12:14:03;9.57;;;8.68;;
16189;SDS011;41754;51.498;7.540;2023-04-15T12:16:33;8.88;;;7.97;;
16189;SDS011;41754;51.498;7.540;2023-04-15T12:19:16;8.38;;;7.55;;
16189;SDS011;41754;51.498;7.540;2023-04-15T12:21:47;8.10;;;7.30;;
16189;SDS011;41754;51.498;7.540;2023-04-15T12:24:15;9.93;;;7.82;;
16189;SDS011;41754;51.498;7.540;2023-04-15T12:26:48;8.25;;;7.38;;
16189;SDS011;41754;51.498;7.540;2023-04-15T12:29:18;7.70;;;6.90;;
16189;SDS011;41754;51.498;7.540;2023-04-15T12:31:49;8.85;;;7.60;;
16189;SDS011;41754;51.498;7.540;2023-04-15T12:34:25;8.13;;;7.40;;
16189;SDS011;41754;51.498;7.540;2023-04-15T12:36:56;8.00;;;7.20;;
16189;SDS011;41754;51.498;7.540;2023-04-15T12:39:29;8.68;;;7.38;;
16189;SDS011;41754;51.498;7.540;2023-04-15T12:42:03;8.32;;;7.05;;
16189;SDS011;41754;51.498;7.540;2023-04-15T12:44:32;9.00;;;8.10;;
16189;SDS011;41754;51.498;7.540;2023-04-15T12:47:00;7.82;;;7.13;;
16189;SDS011;41754;51.498;7.540;2023-04-15T12:49:29;7.38;;;6.45;;
16189;SDS011;41754;51.498;7.540;2023-04-15T12:51:59;8.07;;;7.30;;
16189;SDS011;41754;51.498;7.540;2023-04-15T12:54:28;8.25;;;7.45;;
16189;SDS011;41754;51.498;7.540;2023-04-15T12:56:57;8.30;;;7.47;;
16189;SDS011;41754;51.498;7.540;2023-04-15T12:59:27;8.00;;;7.30;;
16189;SDS011;41754;51.498;7.540;2023-04-15T13:01:55;8.60;;;7.70;;
16189;SDS011;41754;51.498;7.540;2023-04-15T13:04:23;9.02;;;7.57;;
16189;SDS011;41754;51.498;7.540;2023-04-15T13:06:56;7.50;;;6.75;;
16189;SDS011;41754;51.498;7.540;2023-04-15T13:09:25;7.50;;;6.45;;
16189;SDS011;41754;51.498;7.540;2023-04-15T13:11:53;7.35;;;6.65;;
16189;SDS011;41754;51.498;7.540;2023-04-15T13:14:21;6.85;;;6.13;;
16189;SDS011;41754;51.498;7.540;2023-04-15T13:16:49;7.57;;;6.50;;
16189;SDS011;41754;51.498;7.540;2023-04-15T13:19:17;6.97;;;6.38;;
16189;SDS011;41754;51.498;7.540;2023-04-15T13:21:45;8.00;;;6.72;;
16189;SDS011;41754;51.498;7.540;2023-04-15T13:24:13;7.80;;;6.55;;
16189;SDS011;41754;51.498;7.540;2023-04-15T13:26:43;7.28;;;6.20;;
16189;SDS011;41754;51.498;7.540;2023-04-15T13:29:10;7.88;;;6.60;;
16189;SDS011;41754;51.498;7.540;2023-04-15T13:31:39;6.30;;;5.78;;
16189;SDS011;41754;51.498;7.540;2023-04-15T13:34:07;7.88;;;6.78;;
16189;SDS011;41754;51.498;7.540;2023-04-15T13:36:35;16.67;;;13.68;;
16189;SDS011;41754;51.498;7.540;2023-04-15T13:39:03;7.93;;;6.63;;
16189;SDS011;41754;51.498;7.540;2023-04-15T13:41:31;7.35;;;6.47;;
16189;SDS011;41754;51.498;7.540;2023-04-15T13:44:01;6.40;;;5.57;;
16189;SDS011;41754;51.498;7.540;2023-04-15T13:46:30;7.43;;;6.20;;
16189;SDS011;41754;51.498;7.540;2023-04-15T13:48:59;7.70;;;6.90;;
16189;SDS011;41754;51.498;7.540;2023-04-15T13:51:27;7.07;;;6.47;;
16189;SDS011;41754;51.498;7.540;2023-04-15T13:53:55;7.60;;;6.50;;
16189;SDS011;41754;51.498;7.540;2023-04-15T13:56:23;6.80;;;6.20;;
16189;SDS011;41754;51.498;7.540;2023-04-15T13:58:51;7.78;;;6.72;;
16189;SDS011;41754;51.498;7.540;2023-04-15T14:01:21;6.25;;;5.68;;
16189;SDS011;41754;51.498;7.540;2023-04-15T14:03:49;6.07;;;5.45;;
16189;SDS011;41754;51.498;7.540;2023-04-15T14:06:17;6.03;;;5.43;;
16189;SDS011;41754;51.498;7.540;2023-04-15T14:08:45;6.93;;;5.75;;
16189;SDS011;41754;51.498;7.540;2023-04-15T14:11:13;5.95;;;5.35;;
16189;SDS011;41754;51.498;7.540;2023-04-15T14:13:41;6.10;;;5.50;;
16189;SDS011;41754;51.498;7.540;2023-04-15T14:16:09;6.15;;;5.55;;
16189;SDS011;41754;51.498;7.540;2023-04-15T14:18:38;5.28;;;4.78;;
16189;SDS011;41754;51.498;7.540;2023-04-15T14:21:06;6.18;;;5.57;;
16189;SDS011;41754;51.498;7.540;2023-04-15T14:23:34;4.93;;;4.40;;
16189;SDS011;41754;51.498;7.540;2023-04-15T14:26:02;4.78;;;4.38;;
16189;SDS011;41754;51.498;7.540;2023-04-15T14:28:30;4.77;;;4.30;;
16189;SDS011;41754;51.498;7.540;2023-04-15T14:30:58;5.82;;;5.10;;
16189;SDS011;41754;51.498;7.540;2023-04-15T14:33:27;5.45;;;4.95;;
16189;SDS011;41754;51.498;7.540;2023-04-15T14:35:57;5.70;;;4.70;;
16189;SDS011;41754;51.498;7.540;2023-04-15T14:38:25;5.10;;;4.60;;
16189;SDS011;41754;51.498;7.540;2023-04-15T14:40:53;4.97;;;4.53;;
16189;SDS011;41754;51.498;7.540;2023-04-15T14:43:21;4.70;;;4.03;;
16189;SDS011;41754;51.498;7.540;2023-04-15T14:45:49;4.50;;;3.90;;
16189;SDS011;41754;51.498;7.540;2023-04-15T14:48:18;4.47;;;4.10;;